createdAt,value
2022-09-03T00:01:22.195Z,2.00
2022-09-03T00:03:58.288Z,1.73
2022-09-03T00:07:11.328Z,1.90
2022-09-03T00:09:49.405Z,1.83
2022-09-03T00:12:27.925Z,1.90
2022-09-03T00:15:13.085Z,1.87
2022-09-03T00:17:49.199Z,1.97
2022-09-03T00:20:44.015Z,2.30
2022-09-03T00:23:18.415Z,1.80
2022-09-03T00:26:06.111Z,1.60
2022-09-03T00:28:50.095Z,1.87
2022-09-03T00:31:27.330Z,1.60
2022-09-03T00:34:03.736Z,2.00
2022-09-03T00:36:42.267Z,1.90
2022-09-03T00:39:19.011Z,1.77
2022-09-03T00:41:57.801Z,1.60
2022-09-03T00:44:55.106Z,1.90
2022-09-03T00:47:29.923Z,2.00
2022-09-03T00:50:05.397Z,1.90
2022-09-03T00:52:50.033Z,2.07
2022-09-03T00:55:47.557Z,1.87
2022-09-03T00:58:14.675Z,1.80
2022-09-03T01:00:43.841Z,1.80
2022-09-03T01:03:15.807Z,1.90
2022-09-03T01:06:06.359Z,1.87
2022-09-03T01:08:51.544Z,1.80
2022-09-03T01:11:32.226Z,1.97
2022-09-03T01:14:02.551Z,1.80
2022-09-03T01:16:29.644Z,1.70
2022-09-03T01:19:27.935Z,1.80
2022-09-03T01:22:48.730Z,1.87
2022-09-03T01:25:15.449Z,1.60
2022-09-03T01:28:06.596Z,1.50
2022-09-03T01:30:40.074Z,1.60
2022-09-03T01:33:45.194Z,1.67
2022-09-03T01:36:49.631Z,1.60
2022-09-03T01:39:47.535Z,1.90
2022-09-03T01:42:33.264Z,1.57
2022-09-03T01:45:24.564Z,1.57
2022-09-03T01:48:03.084Z,2.00
2022-09-03T01:50:34.014Z,1.80
2022-09-03T01:53:13.213Z,1.60
2022-09-03T01:55:40.365Z,1.60
2022-09-03T01:58:16.004Z,1.77
2022-09-03T02:00:45.811Z,2.00
2022-09-03T02:03:13.427Z,1.80
2022-09-03T02:05:43.454Z,1.83
2022-09-03T02:08:11.750Z,1.70
2022-09-03T02:10:47.295Z,1.77
2022-09-03T02:13:24.670Z,1.40
2022-09-03T02:15:53.632Z,1.70
2022-09-03T02:18:25.105Z,1.80
2022-09-03T02:20:54.492Z,1.50
2022-09-03T02:23:24.711Z,1.97
2022-09-03T02:26:01.943Z,1.60
2022-09-03T02:28:30.603Z,1.57
2022-09-03T02:30:57.568Z,1.43
2022-09-03T02:33:25.437Z,1.40
2022-09-03T02:35:53.306Z,1.60
2022-09-03T02:38:25.770Z,1.60
2022-09-03T02:40:54.411Z,1.67
2022-09-03T02:43:52.162Z,1.83
2022-09-03T02:46:27.089Z,1.60
2022-09-03T02:48:54.687Z,1.40
2022-09-03T02:51:21.609Z,1.60
2022-09-03T02:53:48.803Z,1.57
2022-09-03T02:56:17.622Z,1.60
2022-09-03T02:58:44.730Z,1.70
2022-09-03T03:01:11.762Z,1.60
2022-09-03T03:03:44.852Z,1.70
2022-09-03T03:06:13.218Z,1.80
2022-09-03T03:08:40.747Z,1.77
2022-09-03T03:11:07.551Z,1.90
2022-09-03T03:13:34.636Z,1.97
2022-09-03T03:16:06.261Z,1.87
2022-09-03T03:18:34.724Z,2.00
2022-09-03T03:21:10.246Z,1.73
2022-09-03T03:23:37.921Z,2.00
2022-09-03T03:26:06.942Z,2.20
2022-09-03T03:28:34.306Z,1.93
2022-09-03T03:31:12.606Z,2.20
2022-09-03T03:33:40.356Z,1.90
2022-09-03T03:36:09.798Z,2.13
2022-09-03T03:38:37.608Z,1.87
2022-09-03T03:41:15.925Z,1.70
2022-09-03T03:43:43.092Z,1.93
2022-09-03T03:46:10.854Z,1.80
2022-09-03T03:48:38.309Z,1.80
2022-09-03T03:51:07.489Z,1.87
2022-09-03T03:53:35.471Z,1.50
2022-09-03T03:56:05.531Z,1.83
2022-09-03T03:58:33.427Z,1.90
2022-09-03T04:01:11.362Z,1.50
2022-09-03T04:03:38.693Z,1.50
2022-09-03T04:06:06.595Z,1.63
2022-09-03T04:08:39.070Z,1.50
2022-09-03T04:11:07.326Z,1.80
2022-09-03T04:13:36.001Z,1.70
2022-09-03T04:16:13.662Z,1.80
2022-09-03T04:18:41.335Z,2.00
2022-09-03T04:21:09.828Z,1.87
2022-09-03T04:23:38.439Z,2.03
2022-09-03T04:26:06.107Z,2.00
2022-09-03T04:28:33.626Z,1.70
2022-09-03T04:31:08.051Z,1.53
2022-09-03T04:33:38.085Z,1.73
2022-09-03T04:36:06.299Z,2.00
2022-09-03T04:38:37.146Z,1.60
2022-09-03T04:41:05.415Z,2.20
2022-09-03T04:43:32.909Z,1.70
2022-09-03T04:46:04.577Z,1.60
2022-09-03T04:48:32.361Z,1.60
2022-09-03T04:51:05.312Z,1.50
2022-09-03T04:53:37.312Z,1.70
2022-09-03T04:56:13.413Z,1.83
2022-09-03T04:58:40.742Z,1.50
2022-09-03T05:01:12.922Z,1.93
2022-09-03T05:03:39.722Z,1.73
2022-09-03T05:06:07.873Z,1.53
2022-09-03T05:08:36.751Z,1.47
2022-09-03T05:11:04.801Z,1.97
2022-09-03T05:13:32.013Z,1.60
2022-09-03T05:16:02.454Z,1.70
2022-09-03T05:18:29.703Z,1.70
2022-09-03T05:21:03.619Z,1.67
2022-09-03T05:23:34.350Z,1.63
2022-09-03T05:26:06.525Z,1.90
2022-09-03T05:28:36.951Z,1.70
2022-09-03T05:31:05.318Z,1.50
2022-09-03T05:33:36.321Z,1.53
2022-09-03T05:36:04.544Z,1.70
2022-09-03T05:38:31.678Z,1.50
2022-09-03T05:41:00.608Z,1.40
2022-09-03T05:43:28.430Z,1.60
2022-09-03T05:46:00.513Z,1.50
2022-09-03T05:48:32.954Z,1.70
2022-09-03T05:51:18.436Z,1.60
2022-09-03T05:53:47.361Z,1.83
2022-09-03T05:56:19.634Z,1.40
2022-09-03T05:58:49.193Z,1.60
2022-09-03T06:01:17.635Z,1.50
2022-09-03T06:03:45.554Z,1.23
2022-09-03T06:06:16.404Z,1.40
2022-09-03T06:08:44.945Z,1.70
2022-09-03T06:11:12.607Z,1.43
2022-09-03T06:13:39.831Z,1.50
2022-09-03T06:16:07.841Z,1.50
2022-09-03T06:18:34.881Z,1.43
2022-09-03T06:21:04.230Z,1.80
2022-09-03T06:23:32.262Z,1.50
2022-09-03T06:26:05.279Z,1.60
2022-09-03T06:28:34.871Z,1.40
2022-09-03T06:31:02.824Z,1.20
2022-09-03T06:33:30.997Z,1.27
2022-09-03T06:35:59.407Z,1.50
2022-09-03T06:38:27.398Z,1.30
2022-09-03T06:40:55.588Z,1.23
2022-09-03T06:43:23.320Z,1.37
2022-09-03T06:46:00.981Z,1.40
2022-09-03T06:48:28.867Z,1.40
2022-09-03T06:51:04.779Z,1.50
2022-09-03T06:53:34.383Z,2.10
2022-09-03T06:56:07.739Z,1.65
2022-09-03T06:58:40.518Z,1.33
2022-09-03T07:01:10.365Z,1.50
2022-09-03T07:03:38.216Z,1.42
2022-09-03T07:06:06.432Z,1.45
2022-09-03T07:08:34.316Z,1.40
2022-09-03T07:11:09.223Z,1.40
2022-09-03T07:13:40.815Z,1.20
2022-09-03T07:16:12.456Z,1.33
2022-09-03T07:18:39.779Z,1.23
2022-09-03T07:21:11.164Z,1.33
2022-09-03T07:23:38.882Z,1.40
2022-09-03T07:26:10.820Z,1.48
2022-09-03T07:28:38.652Z,1.40
2022-09-03T07:31:07.825Z,1.50
2022-09-03T07:33:35.371Z,1.27
2022-09-03T07:36:03.388Z,1.30
2022-09-03T07:38:30.304Z,1.40
2022-09-03T07:41:01.679Z,1.40
2022-09-03T07:43:29.692Z,1.60
2022-09-03T07:45:57.117Z,1.40
2022-09-03T07:48:24.909Z,1.60
2022-09-03T07:50:52.364Z,1.52
2022-09-03T07:53:20.881Z,1.58
2022-09-03T07:55:48.923Z,1.40
2022-09-03T07:58:16.141Z,1.30
2022-09-03T08:00:42.984Z,1.40
2022-09-03T08:03:10.986Z,1.45
2022-09-03T08:05:38.165Z,1.40
2022-09-03T08:08:06.285Z,1.40
2022-09-03T08:10:38.305Z,1.50
2022-09-03T08:13:05.677Z,1.40
2022-09-03T08:15:34.168Z,1.50
2022-09-03T08:18:03.797Z,1.40
2022-09-03T08:20:33.173Z,1.33
2022-09-03T08:23:03.734Z,1.40
2022-09-03T08:25:30.876Z,1.50
2022-09-03T08:28:01.072Z,1.58
2022-09-03T08:30:29.605Z,1.45
2022-09-03T08:32:56.876Z,2.60
2022-09-03T08:35:23.644Z,4.75
2022-09-03T08:37:54.803Z,2.25
2022-09-03T08:40:24.366Z,1.63
2022-09-03T08:43:18.784Z,1.80
2022-09-03T08:45:46.138Z,1.45
2022-09-03T08:48:25.922Z,1.50
2022-09-03T08:50:59.769Z,1.70
2022-09-03T08:53:40.284Z,1.55
2022-09-03T08:56:12.083Z,1.50
2022-09-03T08:58:43.810Z,1.58
2022-09-03T09:01:11.806Z,1.33
2022-09-03T09:04:05.938Z,1.77
2022-09-03T09:06:33.106Z,1.90
2022-09-03T09:09:18.859Z,2.03
2022-09-03T09:12:01.069Z,7.53
2022-09-03T09:14:37.179Z,1.98
2022-09-03T09:17:27.998Z,1.58
2022-09-03T09:20:08.154Z,1.42
2022-09-03T09:22:47.375Z,1.50
2022-09-03T09:25:20.135Z,1.48
2022-09-03T09:27:53.389Z,1.70
2022-09-03T09:30:20.365Z,1.50
2022-09-03T09:32:47.491Z,1.67
2022-09-03T09:35:15.810Z,1.60
2022-09-03T09:37:53.237Z,1.38
2022-09-03T09:40:28.097Z,1.90
2022-09-03T09:43:24.564Z,1.65
2022-09-03T09:45:52.573Z,2.00
2022-09-03T09:48:37.606Z,2.17
2022-09-03T09:51:12.386Z,2.00
2022-09-03T09:53:42.536Z,2.05
2022-09-03T09:56:09.751Z,3.15
2022-09-03T09:58:37.092Z,3.65
2022-09-03T10:01:15.034Z,2.40
2022-09-03T10:03:49.195Z,2.85
2022-09-03T10:06:35.354Z,2.40
2022-09-03T10:09:13.439Z,2.30
2022-09-03T10:11:50.243Z,2.03
2022-09-03T10:14:35.073Z,2.00
2022-09-03T10:17:05.879Z,2.00
2022-09-03T10:20:27.547Z,2.10
2022-09-03T10:23:05.497Z,2.05
2022-09-03T10:25:53.515Z,1.88
2022-09-03T10:28:25.377Z,1.80
2022-09-03T10:31:22.850Z,1.70
2022-09-03T10:34:08.334Z,2.00
2022-09-03T10:36:39.855Z,2.25
2022-09-03T10:39:19.825Z,1.98
2022-09-03T10:42:08.296Z,1.80
2022-09-03T10:44:47.916Z,2.00
2022-09-03T10:47:37.962Z,1.70
2022-09-03T10:50:15.081Z,1.88
2022-09-03T10:53:05.309Z,1.70
2022-09-03T10:55:49.727Z,2.00
2022-09-03T10:59:01.035Z,1.77
2022-09-03T11:01:58.918Z,1.90
2022-09-03T11:04:44.304Z,1.60
2022-09-03T11:07:14.801Z,1.63
2022-09-03T11:10:06.797Z,1.83
2022-09-03T11:12:38.742Z,2.10
2022-09-03T11:15:27.655Z,1.80
2022-09-03T11:18:16.726Z,1.95
2022-09-03T11:20:44.749Z,1.73
2022-09-03T11:23:15.628Z,2.05
2022-09-03T11:25:56.759Z,2.30
2022-09-03T11:28:29.343Z,1.90
2022-09-03T11:31:13.777Z,1.90
2022-09-03T11:33:58.498Z,2.00
2022-09-03T11:36:37.458Z,2.20
2022-09-03T11:39:37.254Z,2.17
2022-09-03T11:42:09.311Z,2.50
2022-09-03T11:44:42.720Z,2.10
2022-09-03T11:47:25.733Z,2.05
2022-09-03T11:50:04.421Z,2.28
2022-09-03T11:52:32.511Z,2.13
2022-09-03T11:54:59.717Z,2.50
2022-09-03T11:57:31.883Z,2.63
2022-09-03T12:00:10.751Z,2.50
2022-09-03T12:02:40.905Z,2.35
2022-09-03T12:05:08.126Z,2.25
2022-09-03T12:07:35.352Z,2.25
2022-09-03T12:10:04.886Z,1.95
2022-09-03T12:12:48.234Z,2.45
2022-09-03T12:15:35.202Z,2.10
2022-09-03T12:18:19.074Z,1.90
2022-09-03T12:20:48.256Z,2.25
2022-09-03T12:23:31.796Z,2.15
2022-09-03T12:26:04.951Z,2.00
2022-09-03T12:28:36.211Z,2.10
2022-09-03T12:31:21.407Z,1.90
2022-09-03T12:33:59.045Z,1.98
2022-09-03T12:36:37.698Z,2.10
2022-09-03T12:39:16.202Z,1.98
2022-09-03T12:42:05.031Z,2.00
2022-09-03T12:44:37.591Z,2.10
2022-09-03T12:49:58.790Z,2.13
2022-09-03T12:52:33.778Z,1.67
2022-09-03T12:55:15.261Z,1.90
2022-09-03T12:57:57.858Z,2.03
2022-09-03T13:00:33.785Z,2.17
2022-09-03T13:03:06.664Z,2.00
2022-09-03T13:05:58.421Z,2.05
2022-09-03T13:08:32.032Z,2.00
2022-09-03T13:11:03.772Z,2.17
2022-09-03T13:13:33.909Z,2.10
2022-09-03T13:16:10.175Z,1.90
2022-09-03T13:19:05.602Z,2.15
2022-09-03T13:21:35.821Z,2.03
2022-09-03T13:24:20.505Z,2.15
2022-09-03T13:26:56.565Z,2.15
2022-09-03T13:29:26.381Z,2.20
2022-09-03T13:32:05.337Z,2.22
2022-09-03T13:34:39.431Z,2.00
2022-09-03T13:37:17.401Z,3.63
2022-09-03T13:39:52.530Z,2.40
2022-09-03T13:42:41.712Z,3.00
2022-09-03T13:45:36.799Z,2.97
2022-09-03T13:48:22.586Z,3.72
2022-09-03T13:50:59.571Z,2.95
2022-09-03T13:53:59.406Z,2.88
2022-09-03T13:56:35.668Z,2.45
2022-09-03T13:59:17.519Z,2.30
2022-09-03T14:02:07.845Z,2.45
2022-09-03T14:04:52.640Z,2.28
2022-09-03T14:07:28.619Z,2.17
2022-09-03T14:10:14.405Z,2.50
2022-09-03T14:12:46.795Z,2.63
2022-09-03T14:15:29.384Z,2.50
2022-09-03T14:18:16.507Z,2.30
2022-09-03T14:20:58.067Z,2.40
2022-09-03T14:23:45.834Z,3.40
2022-09-03T14:26:38.218Z,2.50
2022-09-03T14:29:11.846Z,3.85
2022-09-03T14:31:44.186Z,2.38
2022-09-03T14:34:31.280Z,2.70
2022-09-03T14:37:22.750Z,2.28
2022-09-03T14:39:55.804Z,2.30
2022-09-03T14:42:41.154Z,4.25
2022-09-03T14:45:39.146Z,2.47
2022-09-03T14:48:45.154Z,2.63
2022-09-03T14:51:32.913Z,2.72
2022-09-03T14:54:21.373Z,3.15
2022-09-03T14:56:48.606Z,4.18
2022-09-03T14:59:34.644Z,2.55
2022-09-03T15:02:44.189Z,2.25
2022-09-03T15:05:32.285Z,2.17
2022-09-03T15:08:11.768Z,2.25
2022-09-03T15:10:42.584Z,1.90
2022-09-03T15:13:16.726Z,2.25
2022-09-03T15:15:43.867Z,2.10
2022-09-03T15:18:30.751Z,2.28
2022-09-03T15:21:20.795Z,2.40
2022-09-03T15:24:06.331Z,2.28
2022-09-03T15:27:01.365Z,2.33
2022-09-03T15:29:42.195Z,2.10
2022-09-03T15:32:26.687Z,2.40
2022-09-03T15:35:33.587Z,2.15
2022-09-03T15:38:24.855Z,2.35
2022-09-03T15:40:55.796Z,2.47
2022-09-03T15:43:33.711Z,2.20
2022-09-03T15:46:10.753Z,2.55
2022-09-03T15:48:48.792Z,2.08
2022-09-03T15:51:30.829Z,2.65
2022-09-03T15:54:03.459Z,2.33
2022-09-03T15:56:48.096Z,2.25
2022-09-03T15:59:28.964Z,2.20
2022-09-03T16:02:15.125Z,2.10
2022-09-03T16:04:56.901Z,2.17
2022-09-03T16:07:56.203Z,2.00
2022-09-03T16:10:41.377Z,1.73
2022-09-03T16:13:19.179Z,2.20
2022-09-03T16:15:52.030Z,2.15
2022-09-03T16:18:33.250Z,2.35
2022-09-03T16:21:03.267Z,2.33
2022-09-03T16:23:47.137Z,2.05
2022-09-03T16:26:41.303Z,2.05
2022-09-03T16:29:14.246Z,2.03
2022-09-03T16:31:53.972Z,2.60
2022-09-03T16:34:35.479Z,2.70
2022-09-03T16:37:17.265Z,2.47
2022-09-03T16:40:26.552Z,2.28
2022-09-03T16:43:39.306Z,2.40
2022-09-03T16:46:14.630Z,2.10
2022-09-03T16:49:09.167Z,2.33
2022-09-03T16:51:53.421Z,2.80
2022-09-03T16:54:38.139Z,2.67
2022-09-03T16:57:32.757Z,2.75
2022-09-03T17:00:15.499Z,2.40
2022-09-03T17:03:04.282Z,2.40
2022-09-03T17:06:00.682Z,2.40
2022-09-03T17:08:30.777Z,1.65
2022-09-03T17:11:06.306Z,1.80
2022-09-03T17:14:05.363Z,1.90
2022-09-03T17:16:58.641Z,1.77
2022-09-03T17:20:03.603Z,1.75
2022-09-03T17:22:39.740Z,2.05
2022-09-03T17:25:20.553Z,2.15
2022-09-03T17:28:11.346Z,2.20
2022-09-03T17:31:09.943Z,2.20
2022-09-03T17:34:18.403Z,2.50
2022-09-03T17:37:17.974Z,3.60
2022-09-03T17:40:09.050Z,3.72
2022-09-03T17:43:06.489Z,3.40
2022-09-03T17:45:56.535Z,2.80
2022-09-03T17:48:53.423Z,2.85
2022-09-03T17:51:29.162Z,2.50
2022-09-03T17:54:14.924Z,2.33
2022-09-03T17:57:15.175Z,2.33
2022-09-03T18:00:06.550Z,2.30
2022-09-03T18:02:57.436Z,2.10
2022-09-03T18:05:50.543Z,2.05
2022-09-03T18:08:35.883Z,1.98
2022-09-03T18:11:41.608Z,1.90
2022-09-03T18:14:31.864Z,1.60
2022-09-03T18:17:24.101Z,1.92
2022-09-03T18:20:18.161Z,2.30
2022-09-03T18:23:35.323Z,2.17
2022-09-03T18:26:54.669Z,2.10
2022-09-03T18:30:02.140Z,2.40
2022-09-03T18:32:48.714Z,2.42
2022-09-03T18:35:34.606Z,2.17
2022-09-03T18:38:22.711Z,2.10
2022-09-03T18:41:23.364Z,2.30
2022-09-03T18:45:06.362Z,1.92
2022-09-03T18:48:27.927Z,1.85
2022-09-03T18:51:22.263Z,2.05
2022-09-03T18:55:03.813Z,1.90
2022-09-03T18:57:54.226Z,2.45
2022-09-03T19:00:39.919Z,2.20
2022-09-03T19:03:47.508Z,2.20
2022-09-03T19:07:05.871Z,2.38
2022-09-03T19:10:03.101Z,2.50
2022-09-03T19:13:23.642Z,2.40
2022-09-03T19:16:19.374Z,2.40
2022-09-03T19:19:23.629Z,2.40
2022-09-03T19:22:14.694Z,2.60
2022-09-03T19:25:00.210Z,2.38
2022-09-03T19:28:00.326Z,2.40
2022-09-03T19:30:53.089Z,2.90
2022-09-03T19:34:01.516Z,2.58
2022-09-03T19:37:12.613Z,2.57
2022-09-03T19:40:16.322Z,2.47
2022-09-03T19:43:13.402Z,2.78
2022-09-03T19:46:17.301Z,2.50
2022-09-03T19:49:17.100Z,2.30
2022-09-03T19:52:08.044Z,2.60
2022-09-03T19:54:54.906Z,2.70
2022-09-03T19:57:40.961Z,2.50
2022-09-03T20:00:32.968Z,2.60
2022-09-03T20:03:20.381Z,2.87
2022-09-03T20:06:10.744Z,2.40
2022-09-03T20:08:56.755Z,2.70
2022-09-03T20:11:27.547Z,2.30
2022-09-03T20:14:13.248Z,2.40
2022-09-03T20:16:44.642Z,2.43
2022-09-03T20:19:33.305Z,2.47
2022-09-03T20:22:30.531Z,2.75
2022-09-03T20:25:09.974Z,2.70
2022-09-03T20:27:52.386Z,2.40
2022-09-03T20:30:21.312Z,2.42
2022-09-03T20:33:02.804Z,2.70
2022-09-03T20:35:36.414Z,2.58
2022-09-03T20:38:15.128Z,2.30
2022-09-03T20:40:57.800Z,2.70
2022-09-03T20:43:33.440Z,2.87
2022-09-03T20:46:15.259Z,2.60
2022-09-03T20:49:12.972Z,3.10
2022-09-03T20:51:54.631Z,2.57
2022-09-03T20:54:28.792Z,2.58
2022-09-03T20:57:08.886Z,2.78
2022-09-03T20:59:35.544Z,2.80
2022-09-03T21:02:11.500Z,2.30
2022-09-03T21:04:56.589Z,2.67
2022-09-03T21:07:40.045Z,2.67
2022-09-03T21:10:19.194Z,2.70
2022-09-03T21:13:47.103Z,2.87
2022-09-03T21:16:32.069Z,2.50
2022-09-03T21:19:35.928Z,2.60
2022-09-03T21:22:41.077Z,2.60
2022-09-03T21:25:28.211Z,2.60
2022-09-03T21:28:00.478Z,2.50
2022-09-03T21:30:30.122Z,2.58
2022-09-03T21:33:09.273Z,2.53
2022-09-03T21:35:49.788Z,3.13
2022-09-03T21:38:26.855Z,2.53
2022-09-03T21:41:12.448Z,3.20
2022-09-03T21:43:50.141Z,2.83
2022-09-03T21:46:25.190Z,3.00
2022-09-03T21:48:59.929Z,2.70
2022-09-03T21:51:43.799Z,2.60
2022-09-03T21:54:18.997Z,2.57
2022-09-03T21:57:05.801Z,2.70
2022-09-03T21:59:54.020Z,2.80
2022-09-03T22:02:25.409Z,2.67
2022-09-03T22:04:53.437Z,2.83
2022-09-03T22:07:39.387Z,2.70
2022-09-03T22:10:20.323Z,2.93
2022-09-03T22:12:47.988Z,2.83
2022-09-03T22:15:15.085Z,2.90
2022-09-03T22:18:28.568Z,2.90
2022-09-03T22:21:19.924Z,3.20
2022-09-03T22:23:58.635Z,2.97
2022-09-03T22:26:45.061Z,3.05
2022-09-03T22:29:23.378Z,3.30
2022-09-03T22:32:01.896Z,3.13
2022-09-03T22:34:53.638Z,3.93
2022-09-03T22:37:37.358Z,3.10
2022-09-03T22:40:15.653Z,3.07
2022-09-03T22:43:09.051Z,3.37
2022-09-03T22:46:12.266Z,3.50
2022-09-03T22:49:16.839Z,3.17
2022-09-03T22:51:43.926Z,2.97
2022-09-03T22:54:41.565Z,3.23
2022-09-03T22:57:09.938Z,3.47
2022-09-03T22:59:44.597Z,3.33
2022-09-03T23:02:18.205Z,3.30
2022-09-03T23:05:12.630Z,3.47
2022-09-03T23:08:03.132Z,3.43
2022-09-03T23:10:36.372Z,3.93
2022-09-03T23:13:16.726Z,3.87
2022-09-03T23:15:46.099Z,3.60
2022-09-03T23:18:17.536Z,3.20
2022-09-03T23:21:11.958Z,3.23
2022-09-03T23:23:44.133Z,3.17
2022-09-03T23:26:27.469Z,3.77
2022-09-03T23:29:10.282Z,3.20
2022-09-03T23:31:38.136Z,3.43
2022-09-03T23:34:06.134Z,3.40
2022-09-03T23:37:31.674Z,3.53
2022-09-03T23:40:02.899Z,3.37
2022-09-03T23:42:45.111Z,3.17
2022-09-03T23:45:36.146Z,3.17
2022-09-03T23:48:03.234Z,3.43
2022-09-03T23:50:35.963Z,3.50
2022-09-03T23:53:11.553Z,3.43
2022-09-03T23:56:09.007Z,3.07
2022-09-03T23:58:59.236Z,3.60
